Time;durP1;ratioP1;P1;durP2;ratioP2;P2;SDS_P1;SDS_P2;PMS_P1;PMS_P2;Temp;Humidity;BMP_temperature;BMP_pressure;BME280_temperature;BME280_humidity;BME280_pressure;Samples;Min_cycle;Max_cycle;Signal;HPM_P1;HPM_P2
2021/01/06 00:01:31;;;;;;;38.03;18.60;;;6.30;70.50;;;;;;2560169;52;21021;-70
2021/01/06 00:03:57;;;;;;;52.53;25.37;;;6.30;70.50;;;;;;2509500;53;2792376;-69
2021/01/06 00:06:28;;;;;;;58.47;26.58;;;6.30;70.40;;;;;;2340425;53;20968;-69
2021/01/06 00:08:55;;;;;;;43.25;21.17;;;6.30;70.30;;;;;;2582486;52;21021;-69
2021/01/06 00:11:29;;;;;;;59.33;25.77;;;6.30;70.40;;;;;;2590270;52;20952;-69
2021/01/06 00:13:55;;;;;;;43.90;20.98;;;6.20;70.30;;;;;;2589940;52;21013;-69
2021/01/06 00:16:22;;;;;;;28.23;14.52;;;6.20;70.30;;;;;;2322735;53;21028;-69
2021/01/06 00:18:48;;;;;;;27.55;13.13;;;6.30;71.20;;;;;;2586626;52;20949;-69
2021/01/06 00:21:14;;;;;;;26.73;12.00;;;6.30;70.40;;;;;;2586233;52;20972;-69
2021/01/06 00:23:41;;;;;;;26.60;11.85;;;6.30;70.40;;;;;;2585753;52;20941;-69
2021/01/06 00:26:07;;;;;;;25.08;12.05;;;6.30;70.40;;;;;;2343708;53;20957;-69
2021/01/06 00:28:33;;;;;;;25.35;12.52;;;6.30;70.40;;;;;;2340186;53;21017;-69
2021/01/06 00:30:59;;;;;;;27.70;13.02;;;6.30;70.40;;;;;;2344251;53;20945;-69
2021/01/06 00:33:34;;;;;;;25.98;11.77;;;6.30;70.40;;;;;;2344099;53;20968;-69
2021/01/06 00:36:09;;;;;;;24.27;11.45;;;6.30;70.40;;;;;;2339781;53;20972;-69
2021/01/06 00:38:36;;;;;;;25.33;12.13;;;6.30;70.50;;;;;;2346187;53;21012;-68
2021/01/06 00:41:03;;;;;;;20.58;10.35;;;6.30;70.60;;;;;;2341663;53;21017;-69
2021/01/06 00:43:29;;;;;;;25.05;11.23;;;6.30;70.60;;;;;;2341092;53;20944;-69
2021/01/06 00:45:56;;;;;;;18.62;9.70;;;6.30;70.60;;;;;;2340785;53;20941;-69
2021/01/06 00:48:24;;;;;;;23.45;10.93;;;6.30;70.60;;;;;;2340623;53;20984;-69
2021/01/06 00:50:51;;;;;;;25.35;11.85;;;6.30;70.60;;;;;;2341709;53;20952;-70
2021/01/06 00:53:28;;;;;;;25.05;12.13;;;6.40;70.70;;;;;;2585164;52;21020;-68
2021/01/06 00:55:54;;;;;;;29.98;14.65;;;6.40;70.70;;;;;;2343177;53;20956;-69
2021/01/06 00:58:21;;;;;;;34.95;14.15;;;6.40;70.60;;;;;;2586543;52;21009;-69
2021/01/06 01:00:48;;;;;;;33.67;14.00;;;6.40;70.60;;;;;;2588269;52;21472;-69
2021/01/06 01:03:14;;;;;;;56.90;20.20;;;6.40;70.60;;;;;;2343363;53;20932;-69
2021/01/06 01:05:40;;;;;;;64.57;20.95;;;6.30;69.90;;;;;;2587045;52;21009;-68
2021/01/06 01:08:07;;;;;;;46.40;16.75;;;6.40;70.60;;;;;;2345299;53;20969;-68
2021/01/06 01:10:36;;;;;;;37.10;15.10;;;6.40;70.60;;;;;;2592279;52;20949;-69
2021/01/06 01:13:09;;;;;;;28.08;13.20;;;6.40;70.60;;;;;;2346535;53;20978;-68
2021/01/06 01:15:36;;;;;;;27.30;13.38;;;6.40;70.50;;;;;;2588615;52;21476;-69
2021/01/06 01:18:03;;;;;;;27.62;12.82;;;6.40;70.40;;;;;;2340171;53;20980;-69
2021/01/06 01:20:29;;;;;;;28.48;13.15;;;6.40;70.30;;;;;;2344097;53;21628;-69
2021/01/06 01:22:56;;;;;;;20.92;10.30;;;6.40;70.30;;;;;;2587998;52;21460;-69
2021/01/06 01:25:25;;;;;;;24.25;11.05;;;6.40;70.30;;;;;;2343033;53;20979;-69
2021/01/06 01:27:52;;;;;;;23.90;12.40;;;6.40;70.30;;;;;;2585735;52;20936;-68
2021/01/06 01:30:22;;;;;;;26.02;12.05;;;6.40;70.30;;;;;;2585376;52;20926;-69
2021/01/06 01:32:49;;;;;;;23.73;11.50;;;6.40;70.30;;;;;;2342774;53;21488;-69
2021/01/06 01:35:18;;;;;;;24.73;12.52;;;6.40;70.30;;;;;;2583527;52;21029;-69
2021/01/06 01:37:45;;;;;;;25.67;12.00;;;6.40;70.20;;;;;;2339012;53;20952;-69
2021/01/06 01:41:43;;;;;;;23.00;11.60;;;6.40;70.20;;;;;;2557261;53;21509;-69
2021/01/06 01:44:31;;;;;;;22.67;11.10;;;6.40;69.60;;;;;;2341872;53;20974;-69
2021/01/06 01:47:14;;;;;;;26.45;12.82;;;6.40;70.00;;;;;;2588254;52;20976;-69
2021/01/06 01:49:47;;;;;;;24.10;11.70;;;6.30;70.10;;;;;;2318454;54;20925;-69
2021/01/06 01:52:30;;;;;;;27.20;13.02;;;6.40;70.30;;;;;;2556416;53;20942;-69
2021/01/06 01:55:12;;;;;;;24.75;11.73;;;6.30;70.30;;;;;;2341721;53;21040;-69
2021/01/06 01:57:45;;;;;;;23.73;10.80;;;6.30;70.20;;;;;;2582240;52;20929;-69
2021/01/06 02:00:15;;;;;;;;;;;6.30;70.40;;;;;;2593547;52;21012;-68
2021/01/06 02:02:53;;;;;;;23.20;9.52;;;6.30;69.70;;;;;;2586041;52;20126;-68
2021/01/06 02:05:24;;;;;;;24.25;10.73;;;6.30;70.20;;;;;;2336998;53;20968;-68
2021/01/06 02:07:57;;;;;;;26.75;12.50;;;6.40;70.50;;;;;;2337624;53;20934;-68
2021/01/06 02:10:30;;;;;;;24.37;10.98;;;6.40;70.40;;;;;;2343005;53;21429;-68
2021/01/06 02:13:06;;;;;;;22.65;10.57;;;6.30;70.40;;;;;;2343413;53;21004;-68
2021/01/06 02:16:09;;;;;;;21.90;10.63;;;6.40;70.50;;;;;;2341349;53;21079;-68
2021/01/06 02:18:36;;;;;;;24.35;11.15;;;6.30;70.30;;;;;;2568011;52;20973;-69
2021/01/06 02:22:04;;;;;;;22.15;11.10;;;6.40;70.50;;;;;;2335405;53;20941;-69
2021/01/06 02:24:30;;;;;;;21.50;10.18;;;6.40;70.00;;;;;;2342188;53;20989;-69
2021/01/06 02:26:57;;;;;;;23.25;11.02;;;6.40;70.50;;;;;;2342645;53;20968;-69
2021/01/06 02:29:24;;;;;;;26.52;11.95;;;6.40;70.60;;;;;;2338528;53;20936;-69
2021/01/06 02:31:50;;;;;;;22.30;10.48;;;6.40;70.70;;;;;;2339762;53;20941;-69
2021/01/06 02:34:18;;;;;;;23.12;10.98;;;6.40;70.70;;;;;;2320123;54;21026;-68
2021/01/06 02:36:48;;;;;;;18.92;9.35;;;6.40;71.40;;;;;;2583767;52;21394;-69
2021/01/06 02:39:14;;;;;;;18.52;8.95;;;6.40;70.60;;;;;;2338972;53;20905;-69
2021/01/06 02:41:42;;;;;;;17.17;8.90;;;6.40;70.70;;;;;;2341606;53;20952;-69
2021/01/06 02:44:08;;;;;;;22.20;10.05;;;6.40;70.80;;;;;;2339230;53;21016;-69
2021/01/06 02:46:35;;;;;;;20.92;9.70;;;6.40;70.80;;;;;;2338265;53;20944;-69
2021/01/06 02:49:02;;;;;;;22.33;11.07;;;6.50;70.80;;;;;;2584828;52;20917;-69
2021/01/06 02:51:53;;;;;;;20.10;9.90;;;6.50;70.80;;;;;;2340915;53;21489;-70
2021/01/06 02:54:22;;;;;;;19.15;8.73;;;6.50;70.70;;;;;;2344827;53;20921;-69
2021/01/06 02:56:50;;;;;;;18.10;9.07;;;6.50;70.70;;;;;;2340415;53;20932;-69
2021/01/06 02:59:18;;;;;;;20.62;10.25;;;6.50;71.40;;;;;;2348774;52;21614;-69
2021/01/06 03:01:44;;;;;;;16.90;8.73;;;6.50;70.70;;;;;;2333398;53;20936;-69
2021/01/06 03:04:31;;;;;;;19.75;10.27;;;6.50;70.60;;;;;;2591196;52;21537;-69
2021/01/06 03:07:53;;;;;;;17.92;8.60;;;6.50;70.40;;;;;;2328088;55;20957;-69
2021/01/06 03:10:22;;;;;;;17.27;8.38;;;6.50;70.40;;;;;;2587589;52;21068;-69
2021/01/06 03:12:49;;;;;;;21.67;9.18;;;6.50;70.70;;;;;;2344879;53;20977;-69
2021/01/06 03:15:19;;;;;;;21.92;8.70;;;6.50;70.70;;;;;;2585026;52;21774;-69
2021/01/06 03:17:47;;;;;;;15.07;7.82;;;6.50;70.70;;;;;;2345043;53;20969;-69
2021/01/06 03:20:18;;;;;;;12.27;6.18;;;6.50;70.60;;;;;;2340926;53;20945;-69
2021/01/06 03:22:45;;;;;;;12.48;6.68;;;6.50;70.50;;;;;;2341868;53;21005;-69
2021/01/06 03:25:13;;;;;;;12.57;6.60;;;6.50;70.50;;;;;;2588152;52;21052;-68
2021/01/06 03:27:41;;;;;;;12.13;5.95;;;6.50;70.40;;;;;;2341733;53;20965;-69
2021/01/06 03:30:10;;;;;;;11.52;6.07;;;6.50;70.30;;;;;;2588143;52;20929;-69
2021/01/06 03:35:21;;;;;;;11.85;6.03;;;6.40;70.20;;;;;;2341147;53;20909;-69
2021/01/06 03:37:55;;;;;;;9.52;5.20;;;6.40;69.70;;;;;;2345018;53;21028;-69
2021/01/06 03:40:27;;;;;;;10.68;5.43;;;6.40;69.90;;;;;;2345618;53;20973;-69
2021/01/06 03:42:54;;;;;;;14.23;6.82;;;6.40;70.00;;;;;;2345165;53;20981;-68
2021/01/06 03:45:23;;;;;;;10.43;5.45;;;6.30;69.90;;;;;;2335452;53;20932;-69
2021/01/06 03:48:01;;;;;;;10.32;5.70;;;6.30;69.90;;;;;;2337835;53;21071;-69
2021/01/06 03:50:36;;;;;;;11.68;6.03;;;6.30;69.90;;;;;;2585392;52;21084;-70
2021/01/06 03:53:18;;;;;;;11.50;6.03;;;6.20;69.80;;;;;;2557364;53;21790;-69
2021/01/06 03:55:55;;;;;;;10.63;6.20;;;6.20;69.90;;;;;;2344771;53;21013;-70
2021/01/06 03:59:23;;;;;;;9.93;5.43;;;6.20;69.90;;;;;;2576860;52;20953;-70
2021/01/06 04:02:02;;;;;;;11.57;6.07;;;6.20;69.90;;;;;;2345260;53;20978;-70
2021/01/06 04:04:37;;;;;;;11.52;5.85;;;6.10;70.00;;;;;;2339182;53;21472;-70
2021/01/06 04:07:04;;;;;;;10.98;5.78;;;6.10;70.00;;;;;;2340905;53;20957;-70
2021/01/06 04:09:37;;;;;;;12.18;6.03;;;6.10;70.10;;;;;;2589399;52;20974;-70
2021/01/06 04:12:10;;;;;;;11.77;5.90;;;6.10;70.30;;;;;;2583796;52;21041;-69
2021/01/06 04:14:37;;;;;;;10.70;5.97;;;6.10;70.30;;;;;;2579198;52;20945;-69
2021/01/06 04:17:16;;;;;;;11.75;5.70;;;6.10;70.40;;;;;;2584941;52;20913;-71
2021/01/06 04:19:51;;;;;;;10.38;5.87;;;6.10;70.30;;;;;;2588110;52;21489;-70
2021/01/06 04:22:23;;;;;;;10.40;5.55;;;6.10;70.30;;;;;;2340533;53;20964;-69
2021/01/06 04:24:49;;;;;;;10.88;5.65;;;6.10;70.40;;;;;;2345069;53;21024;-69
2021/01/06 04:27:26;;;;;;;13.15;5.47;;;6.10;70.50;;;;;;2339238;53;21037;-69
2021/01/06 04:29:52;;;;;;;10.88;5.87;;;6.00;70.50;;;;;;2341671;53;21740;-68
2021/01/06 04:32:19;;;;;;;10.60;5.55;;;6.00;70.40;;;;;;2588125;52;20993;-69
2021/01/06 04:34:46;;;;;;;9.27;5.28;;;6.00;70.50;;;;;;2588236;52;21024;-69
2021/01/06 04:37:12;;;;;;;11.88;5.90;;;6.00;70.50;;;;;;2340390;53;20996;-69
2021/01/06 04:39:38;;;;;;;9.77;5.60;;;6.00;70.50;;;;;;2588026;52;20944;-68
2021/01/06 04:42:05;;;;;;;9.30;5.22;;;6.00;70.50;;;;;;2351782;52;20958;-70
2021/01/06 04:45:18;;;;;;;11.10;5.93;;;6.00;70.40;;;;;;2341171;53;20928;-70
2021/01/06 04:48:15;;;;;;;9.02;4.90;;;6.00;70.20;;;;;;2341144;53;20937;-71
2021/01/06 04:54:20;;;;;;;9.68;5.65;;;6.00;70.30;;;;;;2347532;53;21002;-70
2021/01/06 04:58:21;;;;;;;11.05;5.22;;;6.00;69.90;;;;;;2587978;52;20981;-70
2021/01/06 05:00:52;;;;;;;10.00;4.80;;;6.00;70.00;;;;;;2588416;52;21490;-69
2021/01/06 05:04:24;;;;;;;9.05;5.18;;;6.00;70.50;;;;;;2349152;53;22022;-69
2021/01/06 05:07:00;;;;;;;10.40;5.12;;;6.00;70.20;;;;;;2355551;53;21509;-68
2021/01/06 05:09:44;;;;;;;8.95;4.93;;;5.90;70.40;;;;;;2603324;52;20938;-69
2021/01/06 05:12:44;;;;;;;9.65;5.45;;;5.90;70.50;;;;;;2567630;52;20948;-69
2021/01/06 05:15:39;;;;;;;8.82;4.93;;;5.90;70.30;;;;;;2587409;52;21501;-68
2021/01/06 05:18:08;;;;;;;10.80;5.47;;;5.90;70.50;;;;;;2588160;52;20962;-69
2021/01/06 05:20:37;;;;;;;9.88;4.90;;;5.90;70.60;;;;;;2574105;52;21870;-69
2021/01/06 05:23:05;;;;;;;11.85;5.78;;;5.90;70.70;;;;;;2341751;53;21020;-69
2021/01/06 05:25:32;;;;;;;12.05;5.75;;;6.00;70.70;;;;;;2340840;53;20953;-69
2021/01/06 05:27:58;;;;;;;11.23;5.57;;;5.90;70.60;;;;;;2341330;53;20948;-69
2021/01/06 05:30:36;;;;;;;10.35;5.37;;;5.90;70.60;;;;;;2341728;53;21553;-69
2021/01/06 05:33:08;;;;;;;10.82;5.43;;;6.00;70.60;;;;;;2343811;53;20912;-69
2021/01/06 05:35:42;;;;;;;12.20;6.50;;;5.90;70.50;;;;;;2587618;52;20958;-69
2021/01/06 05:38:08;;;;;;;10.95;6.03;;;5.90;70.50;;;;;;2341352;53;21690;-69
2021/01/06 05:40:37;;;;;;;10.75;5.80;;;5.90;70.50;;;;;;2588051;52;20988;-69
2021/01/06 05:43:19;;;;;;;12.82;6.20;;;5.90;70.40;;;;;;2341718;53;21378;-69
2021/01/06 05:46:00;;;;;;;11.80;5.70;;;5.90;70.30;;;;;;2322702;54;21008;-69
2021/01/06 05:49:56;;;;;;;10.98;5.70;;;5.90;70.20;;;;;;2587407;52;21912;-68
2021/01/06 05:52:22;;;;;;;11.82;5.43;;;5.90;70.20;;;;;;2344834;53;21020;-68
2021/01/06 05:54:54;;;;;;;13.93;5.78;;;5.90;70.30;;;;;;2592317;52;21017;-68
2021/01/06 05:58:59;;;;;;;11.12;5.05;;;5.90;70.30;;;;;;2349637;53;21537;-69
2021/01/06 06:01:53;;;;;;;12.27;5.72;;;5.90;69.90;;;;;;2583979;52;21032;-68
2021/01/06 06:06:56;;;;;;;12.52;5.97;;;5.80;70.10;;;;;;2588900;52;20961;-68
2021/01/06 06:09:33;;;;;;;13.13;5.85;;;5.80;69.80;;;;;;2348104;53;21511;-68
2021/01/06 06:15:16;;;;;;;12.37;5.43;;;5.80;70.10;;;;;;2326409;53;20953;-69
2021/01/06 06:18:36;;;;;;;10.13;5.12;;;5.80;69.90;;;;;;2592744;52;21017;-69
2021/01/06 06:21:22;;;;;;;12.23;5.90;;;5.80;70.20;;;;;;2352418;53;21026;-68
2021/01/06 06:25:25;;;;;;;12.37;5.78;;;5.70;70.10;;;;;;2552833;53;21456;-68
2021/01/06 06:28:12;;;;;;;12.93;6.07;;;5.70;69.90;;;;;;2559826;53;21450;-69
2021/01/06 06:31:15;;;;;;;9.63;4.95;;;5.70;70.20;;;;;;2592822;52;21038;-69
2021/01/06 06:33:41;;;;;;;12.77;5.72;;;5.70;70.20;;;;;;2345809;53;20932;-68
2021/01/06 06:36:12;;;;;;;11.45;5.68;;;5.70;70.40;;;;;;2577448;52;21516;-68
2021/01/06 06:38:40;;;;;;;11.90;5.72;;;5.70;70.40;;;;;;2583813;52;21012;-68
2021/01/06 06:41:11;;;;;;;12.35;6.45;;;5.70;70.40;;;;;;2567707;52;20933;-68
2021/01/06 06:43:47;;;;;;;11.55;6.00;;;5.60;70.30;;;;;;2340963;53;20949;-68
2021/01/06 06:47:15;;;;;;;10.30;5.50;;;5.60;70.20;;;;;;2595581;52;21449;-68
2021/01/06 06:51:20;;;;;;;11.15;5.70;;;5.60;69.90;;;;;;2341440;53;20944;-68
2021/01/06 06:53:57;;;;;;;12.75;5.75;;;5.60;69.90;;;;;;2343507;53;21198;-68
2021/01/06 06:56:54;;;;;;;12.23;5.50;;;5.60;70.30;;;;;;2326265;54;21005;-68
2021/01/06 07:00:21;;;;;;;9.40;4.78;;;5.60;70.20;;;;;;2579677;52;20988;-68
2021/01/06 07:02:49;;;;;;;12.57;5.80;;;5.60;70.20;;;;;;2355664;53;20973;-69
2021/01/06 07:05:40;;;;;;;13.27;5.62;;;5.60;70.30;;;;;;2340666;53;20956;-69
2021/01/06 07:08:33;;;;;;;12.02;6.15;;;5.60;70.20;;;;;;2344492;53;20972;-68
2021/01/06 07:11:02;;;;;;;11.95;5.80;;;5.60;70.20;;;;;;2587594;52;20968;-69
2021/01/06 07:13:31;;;;;;;12.20;6.18;;;5.60;70.30;;;;;;2329541;52;20964;-69
2021/01/06 07:16:13;;;;;;;13.23;6.50;;;5.70;70.40;;;;;;2586184;52;20965;-69
2021/01/06 07:18:44;;;;;;;13.60;6.15;;;5.60;70.30;;;;;;2588612;52;20933;-69
2021/01/06 07:21:23;;;;;;;13.68;6.20;;;5.60;70.30;;;;;;2341163;53;20949;-69
2021/01/06 07:24:16;;;;;;;10.73;5.87;;;5.60;70.30;;;;;;2344373;53;21077;-68
2021/01/06 07:27:03;;;;;;;11.40;6.15;;;5.50;70.30;;;;;;2345123;53;20976;-68
2021/01/06 07:29:33;;;;;;;12.23;6.03;;;5.50;70.30;;;;;;2337577;53;20916;-69
2021/01/06 07:32:09;;;;;;;11.23;5.57;;;5.50;70.40;;;;;;2560203;53;20984;-69
2021/01/06 07:34:44;;;;;;;10.25;5.68;;;5.50;70.50;;;;;;2340307;53;21020;-69
2021/01/06 07:37:34;;;;;;;10.77;5.55;;;5.50;70.50;;;;;;2340280;53;20981;-69
2021/01/06 07:40:43;;;;;;;11.65;6.07;;;5.50;70.40;;;;;;2588363;52;21509;-69
2021/01/06 07:43:24;;;;;;;11.27;5.90;;;5.50;70.50;;;;;;2585895;52;20947;-68
2021/01/06 07:49:22;;;;;;;11.80;6.35;;;5.50;70.40;;;;;;2340177;53;21550;-70
2021/01/06 07:53:31;;;;;;;10.57;5.10;;;5.60;70.20;;;;;;2349021;53;21433;-69
2021/01/06 07:56:00;;;;;;;10.93;5.43;;;5.50;70.40;;;;;;2341391;53;20937;-69
2021/01/06 07:58:32;;;;;;;11.77;5.78;;;5.60;70.60;;;;;;2590336;52;20989;-69
2021/01/06 08:01:14;;;;;;;12.90;6.35;;;5.50;70.60;;;;;;2326466;54;20957;-69
2021/01/06 08:05:06;;;;;;;10.40;5.07;;;5.50;70.60;;;;;;2341772;53;21051;-68
2021/01/06 08:07:32;;;;;;;11.07;5.55;;;5.50;70.30;;;;;;2560906;53;21008;-69
2021/01/06 08:09:59;;;;;;;9.65;5.18;;;5.50;70.50;;;;;;2341641;53;20953;-69
2021/01/06 08:12:39;;;;;;;11.98;6.07;;;5.50;70.50;;;;;;2339880;53;21446;-69
2021/01/06 08:16:59;;;;;;;11.93;6.00;;;5.50;70.40;;;;;;2345222;53;20988;-69
2021/01/06 08:19:27;;;;;;;10.10;5.32;;;5.50;70.00;;;;;;2345402;53;21028;-69
2021/01/06 08:22:46;;;;;;;11.05;5.12;;;5.50;70.20;;;;;;2595780;52;21004;-68
2021/01/06 08:25:18;;;;;;;9.98;5.15;;;5.50;70.00;;;;;;2592507;52;20938;-70
2021/01/06 08:27:44;;;;;;;12.17;6.17;;;5.50;69.90;;;;;;2339184;53;20964;-69
2021/01/06 08:30:27;;;;;;;10.30;5.53;;;5.40;69.80;;;;;;2333835;53;21032;-69
2021/01/06 08:33:15;;;;;;;12.73;6.68;;;5.40;69.70;;;;;;2584968;52;21012;-70
2021/01/06 08:35:45;;;;;;;12.43;6.30;;;5.40;69.90;;;;;;2586744;52;21039;-69
2021/01/06 08:38:27;;;;;;;11.02;5.37;;;5.30;70.00;;;;;;2345199;53;20980;-70
2021/01/06 08:40:56;;;;;;;12.02;5.50;;;5.30;70.10;;;;;;2336521;53;21016;-69
2021/01/06 08:43:23;;;;;;;12.73;5.85;;;5.40;70.30;;;;;;2349209;53;20996;-69
2021/01/06 08:46:27;;;;;;;13.38;6.40;;;5.40;70.40;;;;;;2328300;53;20937;-69
2021/01/06 08:48:56;;;;;;;11.68;5.82;;;5.30;70.40;;;;;;2587221;52;20967;-69
2021/01/06 08:51:32;;;;;;;11.63;6.05;;;5.30;70.60;;;;;;2326265;53;21020;-70
2021/01/06 08:54:21;;;;;;;11.30;5.85;;;5.40;70.80;;;;;;2341040;53;20962;-69
2021/01/06 08:56:59;;;;;;;11.73;5.82;;;5.40;70.80;;;;;;2339723;53;21008;-69
2021/01/06 08:59:27;;;;;;;11.38;5.85;;;5.40;70.80;;;;;;2341629;53;21007;-70
2021/01/06 09:01:58;;;;;;;10.45;5.95;;;5.40;70.90;;;;;;2347346;53;20919;-69
2021/01/06 09:04:38;;;;;;;12.05;6.18;;;5.50;71.00;;;;;;2574785;52;21556;-70
2021/01/06 09:07:27;;;;;;;12.70;6.22;;;5.50;71.00;;;;;;2335353;53;20993;-69
2021/01/06 09:10:17;;;;;;;11.98;5.87;;;5.50;71.00;;;;;;2342264;53;20969;-69
2021/01/06 09:13:19;;;;;;;13.07;6.25;;;5.50;71.00;;;;;;2559684;53;20968;-69
2021/01/06 09:16:04;;;;;;;11.47;5.90;;;5.50;70.90;;;;;;2587186;52;21010;-69
2021/01/06 09:18:40;;;;;;;13.20;5.72;;;5.60;71.10;;;;;;2346495;53;21040;-69
2021/01/06 09:21:21;;;;;;;12.32;6.12;;;5.60;71.20;;;;;;2340542;53;22836;-69
2021/01/06 09:24:16;;;;;;;11.30;5.43;;;5.60;71.20;;;;;;2588222;52;21024;-69
2021/01/06 09:26:45;;;;;;;11.82;5.50;;;5.60;71.30;;;;;;2321604;54;21028;-69
2021/01/06 09:29:31;;;;;;;11.32;5.95;;;5.60;71.30;;;;;;2588176;52;21001;-70
2021/01/06 09:31:59;;;;;;;14.50;6.80;;;5.70;71.30;;;;;;2587377;52;21004;-69
2021/01/06 09:34:30;;;;;;;12.13;6.62;;;5.70;71.30;;;;;;2587034;52;21112;-69
2021/01/06 09:36:56;;;;;;;11.70;6.53;;;5.70;71.30;;;;;;2332062;53;20948;-70
2021/01/06 09:39:33;;;;;;;11.73;6.53;;;5.70;72.00;;;;;;2592836;52;20996;-70
2021/01/06 09:42:02;;;;;;;12.00;6.25;;;5.70;71.20;;;;;;2588150;52;20917;-70
2021/01/06 09:44:32;;;;;;;12.85;6.50;;;5.80;71.20;;;;;;2332747;53;20905;-70
2021/01/06 09:47:28;;;;;;;13.50;6.78;;;5.80;71.20;;;;;;2345605;53;21020;-70
2021/01/06 09:49:58;;;;;;;13.27;6.40;;;5.80;71.10;;;;;;2571471;52;21778;-69
2021/01/06 09:52:43;;;;;;;11.00;6.00;;;5.80;71.30;;;;;;2576469;52;21547;-70
2021/01/06 09:55:25;;;;;;;13.73;6.18;;;5.80;71.20;;;;;;2342476;53;20951;-69
2021/01/06 09:58:36;;;;;;;14.70;6.40;;;5.90;71.50;;;;;;2352459;53;21050;-70
2021/01/06 10:02:02;;;;;;;12.57;6.05;;;5.90;71.20;;;;;;2334024;53;21119;-70
2021/01/06 10:04:33;;;;;;;12.60;6.22;;;5.90;71.40;;;;;;2583320;52;20944;-69
2021/01/06 10:14:10;;;;;;;12.15;5.45;;;6.00;71.60;;;;;;2589256;52;21036;-70
2021/01/06 10:17:01;;;;;;;12.93;5.97;;;6.10;70.70;;;;;;2343578;53;20967;-70
2021/01/06 10:19:39;;;;;;;11.20;5.82;;;6.00;70.90;;;;;;2343832;53;20957;-69
2021/01/06 10:23:32;;;;;;;11.20;5.50;;;6.10;70.80;;;;;;2357962;53;21035;-69
2021/01/06 10:28:57;;;;;;;12.05;6.15;;;6.00;70.50;;;;;;2579275;53;20995;-69
2021/01/06 10:31:24;;;;;;;11.80;5.40;;;6.00;70.20;;;;;;2355869;53;21002;-69
2021/01/06 10:38:57;;;;;;;11.50;6.05;;;6.00;70.40;;;;;;2344409;53;20946;-69
2021/01/06 10:41:33;;;;;;;10.35;4.78;;;6.00;70.00;;;;;;2339600;53;21310;-70
2021/01/06 10:45:51;;;;;;;10.82;5.35;;;6.00;70.50;;;;;;2347013;53;21555;-70
2021/01/06 10:48:43;;;;;;;12.85;6.62;;;6.00;70.40;;;;;;2581519;52;20962;-69
2021/01/06 10:51:09;;;;;;;10.35;5.78;;;6.00;70.90;;;;;;2330723;53;22116;-70
2021/01/06 10:53:40;;;;;;;11.27;6.18;;;6.00;71.10;;;;;;2329797;53;21451;-69
2021/01/06 10:56:11;;;;;;;11.25;6.03;;;6.00;71.10;;;;;;2490213;53;21021;-69
2021/01/06 10:59:03;;;;;;;14.30;7.35;;;6.10;71.20;;;;;;2508054;53;21059;-69
2021/01/06 11:08:32;;;;;;;13.02;7.37;;;6.10;71.10;;;;;;2501802;53;21032;-70
2021/01/06 11:12:23;;;;;;;12.65;5.62;;;6.10;71.00;;;;;;2512804;53;20936;-70
2021/01/06 11:16:21;;;;;;;11.45;6.00;;;6.20;70.30;;;;;;2546346;53;20976;-70
2021/01/06 11:18:52;;;;;;;11.98;6.65;;;6.20;70.20;;;;;;2311149;53;21056;-68
2021/01/06 11:21:39;;;;;;;13.65;7.20;;;6.20;70.70;;;;;;2327086;53;21072;-70
2021/01/06 11:24:41;;;;;;;11.82;6.50;;;6.20;70.60;;;;;;2323825;53;21031;-68
2021/01/06 11:27:44;;;;;;;13.75;6.50;;;6.20;70.60;;;;;;2311990;54;21008;-70
2021/01/06 11:30:28;;;;;;;10.32;5.37;;;6.20;70.50;;;;;;2336234;53;20944;-70
2021/01/06 11:33:12;;;;;;;;;;;6.20;70.50;;;;;;2581839;52;21765;-70
2021/01/06 11:35:47;;;;;;;9.93;5.40;;;6.20;70.10;;;;;;2317694;54;20070;-71
2021/01/06 11:45:12;;;;;;;9.35;5.05;;;6.20;70.50;;;;;;2327703;53;21059;-70
2021/01/06 11:48:06;;;;;;;7.65;4.22;;;6.20;70.00;;;;;;2580365;53;22104;-70
2021/01/06 11:50:43;;;;;;;9.73;4.93;;;6.20;70.20;;;;;;2581612;53;20968;-71
2021/01/06 11:53:23;;;;;;;9.57;5.93;;;6.20;70.40;;;;;;2337837;53;20955;-70
2021/01/06 11:56:04;;;;;;;10.07;5.25;;;6.20;70.50;;;;;;2579686;52;21013;-70
2021/01/06 11:58:53;;;;;;;10.20;5.60;;;6.20;70.50;;;;;;2560968;52;21007;-70
2021/01/06 12:01:35;;;;;;;10.00;5.55;;;6.20;70.40;;;;;;2337266;53;21044;-70
2021/01/06 12:06:50;;;;;;;11.60;5.90;;;6.20;70.40;;;;;;2335346;53;21013;-70
2021/01/06 12:09:42;;;;;;;12.68;6.40;;;6.20;69.80;;;;;;2338856;53;21176;-71
2021/01/06 12:12:40;;;;;;;10.60;5.62;;;6.20;70.80;;;;;;2580301;53;20921;-70
2021/01/06 12:15:19;;;;;;;25.10;10.27;;;6.20;70.10;;;;;;2338838;53;20925;-70
2021/01/06 12:17:53;;;;;;;30.23;14.02;;;6.20;70.30;;;;;;2340028;53;20980;-70
2021/01/06 12:20:31;;;;;;;22.17;11.25;;;6.20;70.30;;;;;;2583453;53;21681;-71
2021/01/06 12:23:23;;;;;;;20.70;10.93;;;6.20;70.30;;;;;;2340628;53;21016;-71
2021/01/06 12:25:54;;;;;;;17.17;9.55;;;6.20;70.30;;;;;;2581248;53;20975;-70
2021/01/06 12:28:42;;;;;;;17.40;8.70;;;6.20;70.40;;;;;;2339755;53;21504;-70
2021/01/06 12:31:23;;;;;;;14.10;7.78;;;6.20;70.10;;;;;;2336916;53;20933;-70
2021/01/06 12:34:19;;;;;;;17.55;8.93;;;6.20;70.10;;;;;;2342866;53;20944;-71
2021/01/06 12:37:38;;;;;;;16.95;9.43;;;6.20;70.00;;;;;;2576581;53;20941;-70
2021/01/06 12:40:30;;;;;;;17.58;8.60;;;6.20;70.40;;;;;;2340336;53;21032;-70
2021/01/06 12:42:58;;;;;;;13.38;7.30;;;6.20;69.60;;;;;;2350912;53;20929;-71
2021/01/06 12:45:34;;;;;;;14.38;7.12;;;6.10;69.60;;;;;;2358331;53;21038;-69
2021/01/06 12:48:20;;;;;;;14.10;7.68;;;6.10;69.60;;;;;;2348665;53;21020;-72
2021/01/06 12:51:20;;;;;;;14.07;7.37;;;6.10;69.30;;;;;;2570938;53;20901;-71
2021/01/06 12:53:58;;;;;;;12.48;7.10;;;6.10;69.20;;;;;;2316541;53;21007;-71
2021/01/06 12:56:51;;;;;;;16.85;8.90;;;6.00;69.20;;;;;;2549129;53;21677;-70
2021/01/06 12:59:26;;;;;;;14.40;8.48;;;6.00;69.10;;;;;;2287045;54;21008;-71
2021/01/06 13:03:32;;;;;;;14.43;7.50;;;6.00;69.20;;;;;;2319274;54;20930;-71
2021/01/06 13:09:47;;;;;;;16.70;8.35;;;6.00;69.10;;;;;;2336784;53;20948;-71
2021/01/06 13:12:30;;;;;;;14.38;7.37;;;5.90;69.30;;;;;;2338286;53;20921;-72
2021/01/06 13:15:06;;;;;;;14.02;7.65;;;5.90;69.40;;;;;;2345409;53;21015;-71
2021/01/06 13:17:35;;;;;;;15.60;8.43;;;5.90;69.70;;;;;;2331297;53;20971;-70
2021/01/06 13:21:54;;;;;;;14.43;8.32;;;5.80;69.80;;;;;;2586384;53;21810;-71
2021/01/06 13:24:25;;;;;;;17.08;9.25;;;5.80;69.60;;;;;;2338239;53;20936;-71
2021/01/06 13:27:05;;;;;;;16.17;7.87;;;5.80;69.80;;;;;;2322233;54;20925;-71
2021/01/06 13:29:52;;;;;;;15.32;8.30;;;5.80;69.90;;;;;;2587843;52;20996;-71
2021/01/06 13:36:23;;;;;;;16.95;8.75;;;5.80;70.10;;;;;;2341123;53;20964;-71
2021/01/06 13:39:00;;;;;;;15.88;8.32;;;5.90;69.70;;;;;;2571694;53;20937;-71
2021/01/06 13:41:46;;;;;;;16.17;8.13;;;5.80;70.20;;;;;;2556661;52;21016;-71
2021/01/06 13:51:08;;;;;;;19.87;9.65;;;5.80;70.20;;;;;;2310594;53;20960;-70
2021/01/06 13:53:54;;;;;;;16.10;8.63;;;5.80;69.70;;;;;;2554381;52;20976;-70
2021/01/06 13:56:28;;;;;;;20.27;9.80;;;5.90;70.20;;;;;;2315299;53;21457;-71
2021/01/06 14:01:37;;;;;;;19.40;10.85;;;5.90;70.50;;;;;;2527831;53;21357;-72
2021/01/06 14:04:07;;;;;;;18.92;9.80;;;5.90;70.00;;;;;;2316639;53;20945;-71
2021/01/06 14:06:44;;;;;;;19.30;8.93;;;5.90;70.40;;;;;;2317541;53;22365;-73
2021/01/06 14:11:21;;;;;;;19.90;9.85;;;5.90;70.40;;;;;;2329397;53;20971;-72
2021/01/06 14:14:04;;;;;;;23.33;10.65;;;5.90;70.30;;;;;;2341859;53;20988;-74
2021/01/06 14:16:51;;;;;;;18.75;9.60;;;5.90;70.10;;;;;;2333976;53;20961;-72
2021/01/06 14:20:23;;;;;;;18.65;9.80;;;5.90;70.20;;;;;;2341327;53;21008;-73
2021/01/06 14:24:25;;;;;;;14.90;7.43;;;5.90;70.20;;;;;;2337614;53;21048;-72
2021/01/06 14:31:45;;;;;;;15.95;7.93;;;5.90;70.30;;;;;;2334390;54;20984;-73
2021/01/06 14:34:26;;;;;;;18.48;8.43;;;5.90;69.70;;;;;;2580346;53;21032;-73
2021/01/06 14:36:56;;;;;;;17.08;8.98;;;5.90;69.90;;;;;;2574804;52;20987;-74
2021/01/06 14:39:54;;;;;;;19.20;9.65;;;5.90;70.00;;;;;;2580843;52;21746;-72
2021/01/06 14:42:39;;;;;;;18.52;9.32;;;5.90;69.80;;;;;;2580999;53;21056;-73
2021/01/06 14:49:13;;;;;;;20.02;10.15;;;5.80;69.80;;;;;;2336209;53;21319;-73
2021/01/06 14:52:26;;;;;;;16.80;8.45;;;5.80;69.40;;;;;;2581629;53;20917;-72
2021/01/06 14:55:15;;;;;;;16.05;7.78;;;5.80;69.60;;;;;;2580926;53;20999;-73
2021/01/06 15:00:39;;;;;;;16.95;8.80;;;5.70;69.90;;;;;;2336603;53;20976;-73
2021/01/06 15:04:15;;;;;;;16.52;8.02;;;5.70;69.70;;;;;;2580831;53;20973;-72
2021/01/06 15:08:19;;;;;;;18.33;8.75;;;5.70;69.90;;;;;;2580776;53;20917;-73
2021/01/06 15:14:19;;;;;;;15.40;7.93;;;5.70;69.80;;;;;;2344740;53;21028;-73
2021/01/06 15:16:57;;;;;;;17.40;8.40;;;5.70;70.20;;;;;;2581436;53;21628;-73
2021/01/06 15:19:36;;;;;;;15.40;8.07;;;5.70;70.20;;;;;;2560966;52;21040;-72
2021/01/06 15:22:45;;;;;;;15.55;8.45;;;5.70;70.30;;;;;;2580621;53;20940;-73
2021/01/06 15:25:27;;;;;;;17.33;8.85;;;5.60;70.10;;;;;;2580232;53;20938;-72
2021/01/06 15:28:46;;;;;;;17.00;8.63;;;5.70;70.50;;;;;;2334846;54;20956;-70